• Join FlightAware (Why Join?)
  • Login
  • US Flag 
03:11AM EST


 

Airport Tracker/Info


-or-


 

Live Flight TrackerFlight Track Log ✈ SWA3938 ✈ 21-Jun-2013 ✈ KLAX - KPHX

Flight Track Log - Related Links

Times and Time Zones

All times are in EDT time to prevent confusion due to time zone crossing. See the SWA3938 flight status page for this flight to view local times or setup timezone preferences in your user account.

Time Position Orientation Groundspeed Altitude Reporting Facility
EDT Latitude Longitude Course Direction KTS MPH feet Rate Location/Type
09:27AM 33.9500 -118.4500 253° West 158 182 1,600  Level Southern California TRACON
09:27AM 33.9417 -118.4825 253° West 189 217 2,500 2,147 Climbing Los Angeles Center
09:28AM 33.9231 -118.5433 250° West 260 299 5,000 3,148 Climbing Los Angeles Center
09:29AM 33.8453 -118.6086 215° Southwest 294 338 8,900 3,415 Climbing Los Angeles Center
09:30AM 33.7678 -118.5628 154° Southeast 325 374 12,000 2,164 Climbing Los Angeles Center
09:31AM 33.6939 -118.5050 147° Southeast 335 386 13,300 1,867 Climbing Los Angeles Center
09:33AM 33.6581 -118.3944 111° Southeast 365 420 16,200 3,200 Climbing Los Angeles Center
09:34AM 33.6442 -118.2181 95° East 399 459 20,500 3,541 Climbing Los Angeles Center
09:35AM 33.6442 -118.0806 90° East 414 476 23,400 2,585 Climbing Los Angeles Center
09:36AM 33.6442 -117.9364 90° East 433 498 25,800 2,244 Climbing Los Angeles Center
09:37AM 33.6439 -117.7842 90° East 454 522 28,000 2,557 Climbing Los Angeles Center
09:38AM 33.6431 -117.6281 90° East 467 537 31,000 2,439 Climbing Los Angeles Center
09:39AM 33.6425 -117.4761 90° East 459 528 33,000 976 Climbing Los Angeles Center
09:40AM 33.6417 -117.3247 90° East 457 526 33,000  Level Los Angeles Center
09:41AM 33.6392 -117.1422 91° East 458 527 33,000  Level Los Angeles Center
09:42AM 33.6372 -116.9883 91° East 461 531 33,000  Level Los Angeles Center
09:43AM 33.6367 -116.8389 90° East 455 524 33,000  Level Los Angeles Center
09:44AM 33.6317 -116.6853 92° East 456 525 33,000  Level Los Angeles Center
09:45AM 33.6236 -116.5322 94° East 458 527 33,000  Level Los Angeles Center
09:46AM 33.6147 -116.3783 94° East 459 528 33,000  Level Los Angeles Center
09:47AM 33.6047 -116.2206 94° East 468 539 33,000  Level Los Angeles Center
09:48AM 33.5947 -116.0583 94° East 481 554 33,000  Level Los Angeles Center
09:49AM 33.5844 -115.8992 94° East 479 551 33,000  Level Los Angeles Center
09:50AM 33.5736 -115.7072 94° East 481 554 33,000  Level Los Angeles Center
09:51AM 33.5625 -115.5489 95° East 477 549 33,000  Level Los Angeles Center
09:52AM 33.5531 -115.3897 94° East 477 549 33,000  Level Los Angeles Center
09:53AM 33.5425 -115.2294 94° East 481 554 33,000  Level Los Angeles Center
09:54AM 33.5308 -115.0714 95° East 477 549 33,000  Level Los Angeles Center
09:55AM 33.5203 -114.9119 94° East 479 551 33,000  Level Los Angeles Center
09:56AM 33.5072 -114.7200 95° East 481 554 33,000 -195 Level Los Angeles Center
09:57AM 33.4961 -114.5622 95° East 476 548 32,600 -1,790 Descending Los Angeles Center
09:58AM 33.4822 -114.3739 95° East 474 545 29,300 -2,654 Descending Los Angeles Center
09:59AM 33.4803 -114.2881 92° East 472 543 28,000 -2,077 Descending Albuquerque Center
10:00AM 33.4678 -114.1367 96° East 462 532 25,700 -1,463 Descending Albuquerque Center
10:01AM 33.4397 -113.9647 101° East 440 506 25,000 -341 Descending Albuquerque Center
10:02AM 33.4128 -113.8261 103° East 430 495 25,000  Level Albuquerque Center
10:03AM 33.3836 -113.6850 104° East 434 499 25,000 -878 Level Albuquerque Center
10:04AM 33.3561 -113.5467 103° East 430 495 23,200 -1,935 Descending Albuquerque Center
10:05AM 33.3283 -113.4128 104° East 420 483 21,000 -2,098 Descending Albuquerque Center
10:06AM 33.3003 -113.2819 104° East 410 472 18,900 -2,098 Descending Albuquerque Center
10:07AM 33.2758 -113.1583 103° East 392 451 16,700 -2,049 Descending Albuquerque Center
10:08AM 33.2742 -113.0333 91° East 377 434 14,700 -1,951 Descending Albuquerque Center
10:09AM 33.2781 -112.9117 88° East 368 423 12,700 -1,839 Descending Albuquerque Center
10:10AM 33.2961 -112.7800 81° East 342 394 10,900 -1,216 Descending Albuquerque Center
10:12AM 33.3500 -112.6333 66° East 289 333 9,600 -976 Descending Phoenix TRACON
10:12AM 33.3650 -112.5925 66° East 295 339 8,900 -957 Descending Albuquerque Center
10:14AM 33.3983 -112.5100 64° Northeast 278 320 8,100 -871 Descending Albuquerque Center
10:15AM 33.4261 -112.4331 67° East 257 296 7,100 -1,024 Descending Albuquerque Center
10:16AM 33.4283 -112.3506 88° East 252 290 6,000 -1,024 Descending Albuquerque Center
10:17AM 33.4297 -112.2717 89° East 241 277 5,000 -1,113 Descending Albuquerque Center
10:18AM 33.4286 -112.1822 91° East 226 260 3,700 -1,113 Descending Albuquerque Center
10:19AM 33.4283 -112.1147 90° East 209 241 2,700 -919 Descending Albuquerque Center
10:20AM 33.4292 -112.0631 89° East 158 182 1,800 -677 Descending Albuquerque Center
10:21AM 33.4289 -112.0194 90° East 134 154 1,300 -484 Descending Albuquerque Center
10:23AM 33.4343 -112.0116 301° West  Level Estimated